Choudrant, Louisiana
Current Conditions -  °F | °C
As of 9:35 PM on Saturday 22 Nov 2014 (Local Time) from KRSN Reporting Station
Scattered Clouds Scattered Clouds  
Wind Chill: 63°   Ceiling: Unl
Heat Index: 63°   Visibility: 10mi
Dew Point: 58°   Wind: 7mph
Humidity: 85%   Direction: 120°ESE
Pressure: 29.92"   Gusts: NA
Location:  32.53°N, 92.51°W
Report Text: KRSN 230335Z AUTO 12006KT 10SM SCT050 17/15 A2992 RMK AO2 LTG DSNT W T01710145
Loading
Personal Weather Stations






























Interactive Weather Map New forecast layout! Learn more

10-Day Weather Forecast

Advertisements
Track Severe Weather on mobile